createdAt,value
2022-12-19T00:51:09.201Z,27.63
2022-12-19T00:54:12.303Z,28.93
2022-12-19T00:57:16.195Z,26.93
2022-12-19T01:00:19.591Z,28.50
2022-12-19T01:03:22.691Z,29.20
2022-12-19T01:06:28.890Z,27.60
2022-12-19T01:09:32.598Z,27.83
2022-12-19T01:12:47.753Z,28.07
2022-12-19T01:15:51.186Z,32.60
2022-12-19T01:18:54.334Z,34.20
2022-12-19T01:21:58.817Z,27.87
2022-12-19T01:25:02.065Z,33.53
2022-12-19T01:28:06.102Z,28.30
2022-12-19T01:31:09.245Z,32.13
2022-12-19T01:34:15.221Z,29.50
2022-12-19T01:37:20.212Z,28.30
2022-12-19T01:40:23.606Z,31.57
2022-12-19T01:43:27.942Z,33.40
2022-12-19T01:46:36.722Z,31.27
2022-12-19T01:49:40.027Z,26.90
2022-12-19T01:52:45.384Z,31.53
2022-12-19T01:55:49.373Z,32.67
2022-12-19T01:59:00.562Z,30.30
2022-12-19T02:02:14.894Z,32.03
2022-12-19T02:05:18.195Z,31.83
2022-12-19T02:08:24.526Z,27.40
2022-12-19T02:11:27.652Z,29.80
2022-12-19T02:14:31.154Z,25.67
2022-12-19T02:17:45.234Z,31.43
2022-12-19T02:21:14.980Z,29.97
2022-12-19T02:25:00.069Z,28.90
2022-12-19T02:28:44.670Z,29.80
2022-12-19T02:31:53.183Z,28.03
2022-12-19T02:35:01.749Z,32.73
2022-12-19T02:38:12.892Z,30.13
2022-12-19T02:41:22.828Z,44.33
2022-12-19T02:44:31.692Z,35.43
2022-12-19T02:47:37.544Z,32.67
2022-12-19T02:50:42.373Z,30.80
2022-12-19T02:53:45.556Z,28.70
2022-12-19T02:56:53.939Z,25.97
2022-12-19T03:00:04.796Z,28.27
2022-12-19T03:03:16.339Z,29.67
2022-12-19T03:06:26.233Z,28.67
2022-12-19T03:09:41.798Z,26.93
2022-12-19T03:12:51.397Z,20.00
2022-12-19T03:15:54.783Z,30.07
2022-12-19T03:18:59.619Z,24.97
2022-12-19T03:22:02.932Z,26.17
2022-12-19T03:25:06.710Z,23.83
2022-12-19T03:28:15.270Z,24.53
2022-12-19T03:31:21.897Z,25.83
2022-12-19T03:34:30.552Z,23.27
2022-12-19T03:37:37.684Z,26.10
2022-12-19T03:40:43.931Z,19.60
2022-12-19T03:43:46.598Z,23.30
2022-12-19T03:46:57.981Z,29.20
2022-12-19T03:50:02.727Z,26.17
2022-12-19T03:53:12.568Z,24.13
2022-12-19T03:56:21.633Z,24.23
2022-12-19T03:59:33.080Z,25.67
2022-12-19T04:02:38.949Z,24.47
2022-12-19T04:05:44.863Z,26.53
2022-12-19T04:08:48.445Z,17.77
2022-12-19T04:11:55.389Z,27.30
2022-12-19T04:14:58.620Z,26.67
2022-12-19T04:18:02.831Z,22.00
2022-12-19T04:21:13.010Z,24.77
2022-12-19T04:24:20.424Z,25.70
2022-12-19T04:27:24.125Z,27.83
2022-12-19T04:30:27.374Z,26.27
2022-12-19T04:33:30.489Z,25.13
2022-12-19T04:36:35.009Z,25.00
2022-12-19T04:39:38.151Z,30.70
2022-12-19T04:42:41.279Z,25.67
2022-12-19T04:45:44.705Z,28.20
2022-12-19T04:48:48.466Z,25.57
2022-12-19T04:51:52.978Z,21.00
2022-12-19T04:54:56.779Z,26.10
2022-12-19T04:58:02.609Z,28.90
2022-12-19T05:01:07.471Z,32.47
2022-12-19T05:04:10.846Z,27.07
2022-12-19T05:07:16.126Z,23.00
2022-12-19T05:10:19.531Z,24.77
2022-12-19T05:13:22.665Z,25.63
2022-12-19T05:16:25.815Z,27.90
2022-12-19T05:19:29.130Z,23.20
2022-12-19T05:22:33.614Z,27.80
2022-12-19T05:25:37.244Z,30.17
2022-12-19T05:28:40.628Z,29.63
2022-12-19T05:31:43.784Z,22.17
2022-12-19T05:34:46.893Z,25.90
2022-12-19T05:37:51.380Z,29.50
2022-12-19T05:40:54.594Z,24.83
2022-12-19T05:43:58.245Z,19.33
2022-12-19T05:47:01.398Z,25.93
2022-12-19T05:50:05.789Z,24.23
2022-12-19T05:53:10.394Z,28.07
2022-12-19T05:56:16.024Z,24.33
2022-12-19T05:59:19.325Z,26.07
2022-12-19T06:02:22.617Z,30.47
2022-12-19T06:05:25.833Z,27.43
2022-12-19T06:08:30.412Z,26.83
2022-12-19T06:11:33.527Z,26.57
2022-12-19T06:14:36.725Z,27.37
2022-12-19T06:17:39.885Z,24.60
2022-12-19T06:20:42.992Z,27.70
2022-12-19T06:23:48.107Z,24.23
2022-12-19T06:26:51.278Z,31.23
2022-12-19T06:29:54.820Z,23.60
2022-12-19T06:32:57.937Z,30.23
2022-12-19T06:36:01.935Z,25.67
2022-12-19T06:39:06.511Z,26.27
2022-12-19T06:42:25.217Z,23.27
2022-12-19T06:45:28.402Z,21.20
2022-12-19T06:48:31.680Z,27.83
2022-12-19T06:51:35.141Z,26.33
2022-12-19T06:54:39.672Z,25.20
2022-12-19T06:57:46.542Z,27.47
2022-12-19T07:00:52.558Z,32.73
2022-12-19T07:03:56.080Z,23.80
2022-12-19T07:06:59.722Z,26.80
2022-12-19T07:10:05.432Z,25.63
2022-12-19T07:13:08.538Z,31.40
2022-12-19T07:16:11.765Z,25.70
2022-12-19T07:19:15.258Z,26.07
2022-12-19T07:22:18.482Z,29.03
2022-12-19T07:25:22.991Z,24.03
2022-12-19T07:28:26.430Z,26.33
2022-12-19T07:31:29.605Z,30.57
2022-12-19T07:34:32.719Z,25.00
2022-12-19T07:37:35.843Z,26.93
2022-12-19T07:40:40.331Z,27.27
2022-12-19T07:43:43.471Z,25.97
2022-12-19T07:46:46.823Z,28.57
2022-12-19T07:49:49.950Z,21.03
2022-12-19T07:52:53.079Z,30.57
2022-12-19T07:55:57.614Z,24.77
2022-12-19T07:59:00.734Z,21.37
2022-12-19T08:02:04.240Z,24.13
2022-12-19T08:05:08.121Z,23.93
2022-12-19T08:08:11.228Z,25.27
2022-12-19T08:11:18.264Z,29.30
2022-12-19T08:14:21.680Z,28.67
2022-12-19T08:17:24.948Z,24.67
2022-12-19T08:20:28.370Z,24.10
2022-12-19T08:23:31.512Z,28.07
2022-12-19T08:26:40.521Z,29.73
2022-12-19T08:29:47.567Z,31.80
2022-12-19T08:32:50.744Z,36.53
2022-12-19T08:35:53.851Z,38.30
2022-12-19T08:38:57.627Z,33.17
2022-12-19T08:42:04.412Z,35.53
2022-12-19T08:45:08.913Z,37.23
2022-12-19T08:48:12.076Z,40.20
2022-12-19T08:51:17.092Z,32.40
2022-12-19T08:54:20.268Z,34.47
2022-12-19T08:57:24.825Z,40.50
2022-12-19T09:00:27.941Z,34.77
2022-12-19T09:03:33.356Z,36.23
2022-12-19T09:06:51.122Z,35.87
2022-12-19T09:09:55.004Z,36.30
2022-12-19T09:12:59.991Z,40.63
2022-12-19T09:16:04.686Z,31.10
2022-12-19T09:19:15.331Z,42.57
2022-12-19T09:22:18.516Z,41.53
2022-12-19T09:25:21.839Z,39.17
2022-12-19T09:28:27.636Z,38.13
2022-12-19T09:31:31.528Z,36.73
2022-12-19T09:34:38.464Z,42.70
2022-12-19T09:37:42.034Z,39.93
2022-12-19T09:40:56.637Z,40.40
2022-12-19T09:44:11.085Z,34.20
2022-12-19T09:47:18.726Z,43.30
2022-12-19T09:50:31.996Z,35.67
2022-12-19T09:53:42.689Z,41.57
2022-12-19T09:56:46.946Z,42.63
2022-12-19T09:59:57.442Z,41.80
2022-12-19T10:03:06.154Z,43.57
2022-12-19T10:07:12.886Z,40.67
2022-12-19T10:11:37.267Z,43.27
2022-12-19T10:13:16.387Z,42.30
2022-12-19T10:16:32.252Z,39.17
2022-12-19T10:19:45.338Z,43.60
2022-12-19T10:23:00.873Z,47.60
2022-12-19T10:26:07.851Z,44.57
2022-12-19T10:29:25.767Z,46.57
2022-12-19T10:32:37.794Z,51.17
2022-12-19T10:35:44.262Z,49.63
2022-12-19T10:38:58.354Z,52.17
2022-12-19T10:42:11.968Z,42.93
2022-12-19T10:45:19.101Z,44.37
2022-12-19T10:48:30.582Z,48.77
2022-12-19T10:51:34.531Z,44.77
2022-12-19T10:54:43.763Z,50.67
2022-12-19T10:57:46.949Z,48.80
2022-12-19T11:01:13.119Z,45.23
2022-12-19T11:04:26.510Z,52.27
2022-12-19T11:07:29.655Z,49.03
2022-12-19T11:13:03.797Z,47.57
2022-12-19T11:18:11.661Z,46.77
2022-12-19T11:21:11.155Z,51.30
2022-12-19T11:29:44.791Z,54.20
2022-12-19T11:30:36.057Z,53.27
2022-12-19T11:30:42.889Z,43.33
2022-12-19T11:35:15.563Z,43.10
2022-12-19T11:38:36.839Z,44.97
2022-12-19T11:41:46.806Z,45.07
2022-12-19T11:44:59.192Z,47.30
2022-12-19T11:51:29.172Z,51.03
2022-12-19T11:54:38.209Z,49.33
2022-12-19T11:57:43.258Z,47.17
2022-12-19T12:00:52.528Z,47.10
2022-12-19T12:04:22.262Z,49.37
2022-12-19T12:09:36.095Z,41.10
2022-12-19T12:15:57.064Z,45.33
2022-12-19T12:24:58.850Z,43.83
2022-12-19T12:31:05.599Z,40.23
2022-12-19T12:31:26.998Z,45.07
2022-12-19T12:31:52.920Z,48.27
2022-12-19T12:32:02.524Z,54.77
2022-12-19T12:35:32.682Z,59.00
2022-12-19T12:39:25.404Z,55.50
2022-12-19T12:42:44.731Z,55.77
2022-12-19T12:45:48.148Z,47.97
2022-12-19T12:48:56.379Z,50.17
2022-12-19T12:52:01.677Z,45.70
2022-12-19T12:55:07.516Z,41.30
2022-12-19T12:58:54.123Z,42.73
2022-12-19T13:02:00.567Z,48.73
2022-12-19T13:05:24.502Z,39.10
2022-12-19T13:08:39.523Z,40.73
2022-12-19T13:12:17.068Z,51.07
2022-12-19T13:15:41.390Z,41.37
2022-12-19T13:19:05.446Z,46.83
2022-12-19T13:22:19.433Z,40.50
2022-12-19T13:25:50.550Z,48.90
2022-12-19T13:28:53.796Z,41.80
2022-12-19T13:32:12.616Z,41.27
2022-12-19T13:37:02.960Z,40.23
2022-12-19T13:39:58.315Z,45.23
2022-12-19T13:42:43.662Z,47.73
2022-12-19T13:45:53.242Z,48.93
2022-12-19T13:49:03.277Z,42.97
2022-12-19T13:52:08.055Z,48.90
2022-12-19T13:55:15.279Z,43.07
2022-12-19T13:58:28.958Z,47.10
2022-12-19T14:01:35.212Z,54.60
2022-12-19T14:04:41.994Z,52.63
2022-12-19T14:07:47.020Z,45.00
2022-12-19T14:11:41.677Z,50.77
2022-12-19T14:14:35.547Z,59.17
2022-12-19T14:17:38.708Z,48.27
2022-12-19T14:22:06.091Z,50.57
2022-12-19T14:24:17.086Z,52.40
2022-12-19T14:28:17.163Z,49.17
2022-12-19T14:30:48.757Z,56.20
2022-12-19T14:34:18.565Z,50.67
2022-12-19T14:39:19.821Z,58.23
2022-12-19T14:41:08.268Z,53.93
2022-12-19T14:52:35.815Z,50.87
2022-12-19T14:54:13.167Z,51.40
2022-12-19T14:54:28.084Z,54.13
2022-12-19T14:58:56.164Z,54.80
2022-12-19T15:01:36.686Z,66.20
2022-12-19T15:04:48.281Z,49.73
2022-12-19T15:07:59.996Z,59.63
2022-12-19T15:11:42.914Z,49.27
2022-12-19T15:14:58.998Z,52.97
2022-12-19T15:18:15.364Z,45.27
2022-12-19T15:21:18.610Z,51.27
2022-12-19T15:24:21.790Z,53.67
2022-12-19T15:27:27.429Z,50.57
2022-12-19T15:30:33.753Z,47.73
2022-12-19T15:33:48.027Z,58.53
2022-12-19T15:36:59.971Z,52.80
2022-12-19T15:40:03.117Z,48.20
2022-12-19T15:43:14.334Z,55.70
2022-12-19T15:46:31.451Z,51.67
2022-12-19T15:49:35.333Z,53.87
2022-12-19T15:52:38.546Z,54.07
2022-12-19T15:55:43.030Z,53.20
2022-12-19T15:58:47.491Z,52.40
2022-12-19T16:01:50.904Z,49.00
2022-12-19T16:05:01.601Z,57.23
2022-12-19T16:08:11.708Z,52.50
2022-12-19T16:11:20.700Z,51.03
2022-12-19T16:14:30.166Z,58.33
2022-12-19T16:17:35.371Z,56.73
2022-12-19T16:20:39.514Z,57.43
2022-12-19T16:23:43.062Z,53.93
2022-12-19T16:26:52.308Z,51.43
2022-12-19T16:29:57.655Z,55.17
2022-12-19T16:33:01.205Z,49.37
2022-12-19T16:36:06.646Z,56.17
2022-12-19T16:39:10.687Z,60.40
2022-12-19T16:42:17.263Z,48.23
2022-12-19T16:45:24.550Z,48.07
2022-12-19T16:48:29.810Z,51.77
2022-12-19T16:51:33.065Z,49.97
2022-12-19T16:54:36.254Z,56.20
2022-12-19T16:57:39.540Z,51.37
2022-12-19T17:00:44.987Z,53.70
2022-12-19T17:03:48.227Z,55.07
2022-12-19T17:06:52.439Z,55.43
2022-12-19T17:09:55.565Z,50.20
2022-12-19T17:13:00.224Z,50.77
2022-12-19T17:16:05.927Z,51.63
2022-12-19T17:19:12.359Z,52.87
2022-12-19T17:22:17.475Z,51.30
2022-12-19T17:25:23.892Z,46.50
2022-12-19T17:28:27.253Z,57.27
2022-12-19T17:31:38.077Z,55.47
2022-12-19T17:34:41.568Z,56.67
2022-12-19T17:37:46.775Z,52.67
2022-12-19T17:40:49.906Z,46.27
2022-12-19T17:43:53.368Z,55.70
2022-12-19T17:46:57.909Z,49.20
2022-12-19T17:50:01.280Z,58.93
2022-12-19T17:53:04.611Z,51.33
2022-12-19T17:56:12.588Z,56.67
2022-12-19T17:59:15.834Z,51.03
2022-12-19T18:02:24.338Z,56.57
2022-12-19T18:05:29.851Z,54.40
2022-12-19T18:08:34.115Z,57.70
2022-12-19T18:11:41.812Z,60.00
2022-12-19T18:14:45.497Z,60.03
2022-12-19T18:17:51.527Z,50.57
2022-12-19T18:20:55.195Z,61.00
2022-12-19T18:23:58.449Z,47.60
2022-12-19T18:27:01.562Z,55.77
2022-12-19T18:30:06.453Z,55.10
2022-12-19T18:33:16.522Z,58.43
2022-12-19T18:36:22.264Z,54.10
2022-12-19T18:39:27.456Z,52.73
2022-12-19T18:42:30.581Z,56.03
2022-12-19T18:45:36.599Z,58.53
2022-12-19T18:48:42.469Z,57.93
2022-12-19T18:51:47.405Z,67.20
2022-12-19T18:54:52.030Z,62.33
2022-12-19T18:57:56.009Z,60.87
2022-12-19T19:01:01.041Z,58.07
2022-12-19T19:04:07.481Z,57.07
2022-12-19T19:07:11.580Z,62.57
2022-12-19T19:10:21.037Z,58.23
2022-12-19T19:13:25.923Z,49.37
2022-12-19T19:16:29.943Z,54.97
2022-12-19T19:19:35.229Z,56.43
2022-12-19T19:22:40.121Z,57.70
2022-12-19T19:25:43.677Z,62.97
2022-12-19T19:28:51.928Z,55.03
2022-12-19T19:31:55.928Z,52.13
2022-12-19T19:35:01.339Z,51.03
2022-12-19T19:38:08.571Z,57.47
2022-12-19T19:41:12.850Z,62.00
2022-12-19T19:44:16.429Z,66.23
2022-12-19T19:47:26.969Z,59.73
2022-12-19T19:50:32.582Z,55.77
2022-12-19T19:53:37.590Z,53.13
2022-12-19T19:56:41.395Z,64.67
2022-12-19T19:59:45.520Z,51.87
2022-12-19T20:02:49.277Z,56.00
2022-12-19T20:06:01.194Z,51.47
2022-12-19T20:09:04.924Z,55.03
2022-12-19T20:12:08.500Z,59.27
2022-12-19T20:15:12.288Z,51.73
2022-12-19T20:18:16.738Z,56.17
2022-12-19T20:21:21.923Z,49.87
2022-12-19T20:24:25.149Z,57.53
2022-12-19T20:27:28.434Z,55.07
2022-12-19T20:30:32.468Z,51.00
2022-12-19T20:33:36.094Z,63.83
2022-12-19T20:36:41.560Z,51.73
2022-12-19T20:39:45.048Z,51.70
2022-12-19T20:42:48.226Z,49.60
2022-12-19T20:45:52.076Z,46.33
2022-12-19T20:48:55.531Z,46.60
2022-12-19T20:52:00.349Z,57.97
2022-12-19T20:55:03.564Z,43.73
2022-12-19T20:58:06.729Z,53.13
2022-12-19T21:01:11.536Z,48.93
2022-12-19T21:04:15.558Z,42.70
2022-12-19T21:07:20.248Z,47.50
2022-12-19T21:10:23.362Z,45.80
2022-12-19T21:13:26.466Z,51.67
2022-12-19T21:16:29.703Z,53.13
2022-12-19T21:19:32.957Z,46.40
2022-12-19T21:22:37.510Z,53.67
2022-12-19T21:25:40.669Z,49.43
2022-12-19T21:28:44.112Z,53.40
2022-12-19T21:31:47.696Z,42.03
2022-12-19T21:34:53.455Z,53.03
2022-12-19T21:37:58.073Z,42.80
2022-12-19T21:41:03.921Z,52.90
2022-12-19T21:44:07.067Z,41.20
2022-12-19T21:47:10.339Z,47.37
2022-12-19T21:50:16.387Z,45.37
2022-12-19T21:53:20.898Z,40.17
2022-12-19T21:56:26.260Z,50.43
2022-12-19T21:59:29.383Z,45.10
2022-12-19T22:02:32.641Z,46.00
2022-12-19T22:05:35.961Z,42.67
2022-12-19T22:08:40.464Z,44.70
2022-12-19T22:11:44.420Z,44.17
2022-12-19T22:14:47.685Z,48.10
2022-12-19T22:17:50.825Z,41.00
2022-12-19T22:20:58.812Z,50.17
2022-12-19T22:24:04.769Z,48.30
2022-12-19T22:27:07.911Z,44.00
2022-12-19T22:30:11.632Z,42.97
2022-12-19T22:33:14.775Z,44.90
2022-12-19T22:36:25.806Z,40.30
2022-12-19T22:39:32.413Z,40.83
2022-12-19T22:42:35.673Z,43.87
2022-12-19T22:45:38.811Z,46.30
2022-12-19T22:48:42.355Z,42.67
2022-12-19T22:51:45.586Z,44.73
2022-12-19T22:54:50.073Z,41.87
2022-12-19T22:57:53.306Z,45.73
2022-12-19T23:00:56.381Z,45.43
2022-12-19T23:04:00.733Z,40.27
2022-12-19T23:07:04.024Z,44.87
2022-12-19T23:10:10.048Z,46.13
2022-12-19T23:13:13.180Z,51.93
2022-12-19T23:16:17.015Z,42.40
2022-12-19T23:19:20.160Z,45.80
2022-12-19T23:22:23.307Z,42.97
2022-12-19T23:25:27.919Z,45.13
2022-12-19T23:28:31.026Z,42.53
2022-12-19T23:31:34.731Z,48.33
2022-12-19T23:34:38.559Z,42.53
2022-12-19T23:37:41.668Z,43.37
2022-12-19T23:40:46.142Z,46.73
2022-12-19T23:43:49.281Z,49.43
2022-12-19T23:46:54.627Z,48.40
2022-12-19T23:50:02.364Z,46.37
2022-12-19T23:53:05.472Z,45.67
2022-12-19T23:56:13.906Z,39.63
2022-12-19T23:59:17.076Z,47.27
